sensor_id;sensor_type;location;lat;lon;timestamp;temperature;humidity
30381;DHT22;17169;50.966;11.038;2023-04-15T00:00:49;8.60;99.90
30381;DHT22;17169;50.966;11.038;2023-04-15T00:03:53;8.60;99.90
30381;DHT22;17169;50.966;11.038;2023-04-15T00:06:57;8.60;99.90
30381;DHT22;17169;50.966;11.038;2023-04-15T00:09:59;8.60;99.90
30381;DHT22;17169;50.966;11.038;2023-04-15T00:13:02;8.60;99.90
30381;DHT22;17169;50.966;11.038;2023-04-15T00:16:05;8.70;99.90
30381;DHT22;17169;50.966;11.038;2023-04-15T00:19:08;8.60;99.90
30381;DHT22;17169;50.966;11.038;2023-04-15T00:22:12;8.50;99.90
30381;DHT22;17169;50.966;11.038;2023-04-15T00:25:15;8.50;99.90
30381;DHT22;17169;50.966;11.038;2023-04-15T00:28:17;8.50;99.90
30381;DHT22;17169;50.966;11.038;2023-04-15T00:31:20;8.50;99.90
30381;DHT22;17169;50.966;11.038;2023-04-15T00:34:23;8.50;99.90
30381;DHT22;17169;50.966;11.038;2023-04-15T00:37:26;8.50;99.90
30381;DHT22;17169;50.966;11.038;2023-04-15T00:40:29;8.50;99.90
30381;DHT22;17169;50.966;11.038;2023-04-15T00:43:31;8.50;99.90
30381;DHT22;17169;50.966;11.038;2023-04-15T00:46:35;8.60;99.90
30381;DHT22;17169;50.966;11.038;2023-04-15T00:49:39;8.60;99.90
30381;DHT22;17169;50.966;11.038;2023-04-15T00:52:42;8.60;99.90
30381;DHT22;17169;50.966;11.038;2023-04-15T00:55:45;8.60;99.90
30381;DHT22;17169;50.966;11.038;2023-04-15T00:58:47;8.60;99.90
30381;DHT22;17169;50.966;11.038;2023-04-15T01:01:50;8.60;99.90
30381;DHT22;17169;50.966;11.038;2023-04-15T01:04:52;8.60;99.90
30381;DHT22;17169;50.966;11.038;2023-04-15T01:07:56;8.60;99.90
30381;DHT22;17169;50.966;11.038;2023-04-15T01:11:00;8.60;99.90
30381;DHT22;17169;50.966;11.038;2023-04-15T01:14:03;8.60;99.90
30381;DHT22;17169;50.966;11.038;2023-04-15T01:17:05;8.50;99.90
30381;DHT22;17169;50.966;11.038;2023-04-15T01:20:08;8.50;99.90
30381;DHT22;17169;50.966;11.038;2023-04-15T01:23:13;8.50;99.90
30381;DHT22;17169;50.966;11.038;2023-04-15T01:26:18;8.60;99.90
30381;DHT22;17169;50.966;11.038;2023-04-15T01:29:21;8.50;99.90
30381;DHT22;17169;50.966;11.038;2023-04-15T01:32:24;8.60;99.90
30381;DHT22;17169;50.966;11.038;2023-04-15T01:35:27;8.50;99.90
30381;DHT22;17169;50.966;11.038;2023-04-15T01:38:29;8.60;99.90
30381;DHT22;17169;50.966;11.038;2023-04-15T01:41:34;8.60;99.90
30381;DHT22;17169;50.966;11.038;2023-04-15T01:44:36;8.60;99.90
30381;DHT22;17169;50.966;11.038;2023-04-15T01:47:39;8.60;99.90
30381;DHT22;17169;50.966;11.038;2023-04-15T01:50:42;8.60;99.90
30381;DHT22;17169;50.966;11.038;2023-04-15T01:53:44;8.60;99.90
30381;DHT22;17169;50.966;11.038;2023-04-15T01:56:48;8.60;99.90
30381;DHT22;17169;50.966;11.038;2023-04-15T01:59:51;8.60;99.90
30381;DHT22;17169;50.966;11.038;2023-04-15T02:02:53;8.60;99.90
30381;DHT22;17169;50.966;11.038;2023-04-15T02:05:55;8.60;99.90
30381;DHT22;17169;50.966;11.038;2023-04-15T02:08:57;8.60;99.90
30381;DHT22;17169;50.966;11.038;2023-04-15T02:12:01;8.60;99.90
30381;DHT22;17169;50.966;11.038;2023-04-15T02:15:04;8.60;99.90
30381;DHT22;17169;50.966;11.038;2023-04-15T02:18:07;8.70;99.90
30381;DHT22;17169;50.966;11.038;2023-04-15T02:21:09;8.70;99.90
30381;DHT22;17169;50.966;11.038;2023-04-15T02:24:11;8.70;99.90
30381;DHT22;17169;50.966;11.038;2023-04-15T02:27:18;8.70;99.90
30381;DHT22;17169;50.966;11.038;2023-04-15T02:30:21;8.70;99.90
30381;DHT22;17169;50.966;11.038;2023-04-15T02:33:24;8.70;99.90
30381;DHT22;17169;50.966;11.038;2023-04-15T02:36:26;8.70;99.90
30381;DHT22;17169;50.966;11.038;2023-04-15T02:39:29;8.70;99.90
30381;DHT22;17169;50.966;11.038;2023-04-15T02:42:33;8.70;99.90
30381;DHT22;17169;50.966;11.038;2023-04-15T02:45:35;8.60;99.90
30381;DHT22;17169;50.966;11.038;2023-04-15T02:48:38;8.60;99.90
30381;DHT22;17169;50.966;11.038;2023-04-15T02:51:40;8.60;99.90
30381;DHT22;17169;50.966;11.038;2023-04-15T02:54:43;8.60;99.90
30381;DHT22;17169;50.966;11.038;2023-04-15T02:57:47;8.50;99.90
30381;DHT22;17169;50.966;11.038;2023-04-15T03:00:49;8.50;99.90
30381;DHT22;17169;50.966;11.038;2023-04-15T03:03:51;8.50;99.90
30381;DHT22;17169;50.966;11.038;2023-04-15T03:06:54;8.40;99.90
30381;DHT22;17169;50.966;11.038;2023-04-15T03:09:56;8.40;99.90
30381;DHT22;17169;50.966;11.038;2023-04-15T03:13:00;8.40;99.90
30381;DHT22;17169;50.966;11.038;2023-04-15T03:16:02;8.40;99.90
30381;DHT22;17169;50.966;11.038;2023-04-15T03:19:05;8.40;99.90
30381;DHT22;17169;50.966;11.038;2023-04-15T03:22:07;8.40;99.90
30381;DHT22;17169;50.966;11.038;2023-04-15T03:25:10;8.40;99.90
30381;DHT22;17169;50.966;11.038;2023-04-15T03:28:14;8.40;99.90
30381;DHT22;17169;50.966;11.038;2023-04-15T03:31:16;8.40;99.90
30381;DHT22;17169;50.966;11.038;2023-04-15T03:34:18;8.50;99.90
30381;DHT22;17169;50.966;11.038;2023-04-15T03:37:21;8.40;99.90
30381;DHT22;17169;50.966;11.038;2023-04-15T03:40:23;8.40;99.90
30381;DHT22;17169;50.966;11.038;2023-04-15T03:43:27;8.40;99.90
30381;DHT22;17169;50.966;11.038;2023-04-15T03:46:29;8.30;99.90
30381;DHT22;17169;50.966;11.038;2023-04-15T03:49:32;8.30;99.90
30381;DHT22;17169;50.966;11.038;2023-04-15T03:52:34;8.20;99.90
30381;DHT22;17169;50.966;11.038;2023-04-15T03:55:36;8.30;99.90
30381;DHT22;17169;50.966;11.038;2023-04-15T03:58:40;8.20;99.90
30381;DHT22;17169;50.966;11.038;2023-04-15T04:01:42;8.20;99.90
30381;DHT22;17169;50.966;11.038;2023-04-15T04:04:45;8.10;99.90
30381;DHT22;17169;50.966;11.038;2023-04-15T04:07:47;8.10;99.90
30381;DHT22;17169;50.966;11.038;2023-04-15T04:10:50;8.00;99.90
30381;DHT22;17169;50.966;11.038;2023-04-15T04:13:53;8.00;99.90
30381;DHT22;17169;50.966;11.038;2023-04-15T04:16:56;7.90;99.90
30381;DHT22;17169;50.966;11.038;2023-04-15T04:19:58;8.00;99.90
30381;DHT22;17169;50.966;11.038;2023-04-15T04:23:01;7.90;99.90
30381;DHT22;17169;50.966;11.038;2023-04-15T04:26:03;7.80;99.90
30381;DHT22;17169;50.966;11.038;2023-04-15T04:29:07;7.80;99.90
30381;DHT22;17169;50.966;11.038;2023-04-15T04:32:09;7.70;99.90
30381;DHT22;17169;50.966;11.038;2023-04-15T04:35:12;7.70;99.90
30381;DHT22;17169;50.966;11.038;2023-04-15T04:38:14;7.70;99.90
30381;DHT22;17169;50.966;11.038;2023-04-15T04:41:17;7.70;99.90
30381;DHT22;17169;50.966;11.038;2023-04-15T04:44:20;7.70;99.90
30381;DHT22;17169;50.966;11.038;2023-04-15T04:47:23;7.70;99.90
30381;DHT22;17169;50.966;11.038;2023-04-15T04:50:25;7.60;99.90
30381;DHT22;17169;50.966;11.038;2023-04-15T04:53:28;7.70;99.90
30381;DHT22;17169;50.966;11.038;2023-04-15T04:56:30;7.60;99.90
30381;DHT22;17169;50.966;11.038;2023-04-15T04:59:35;7.60;99.90
30381;DHT22;17169;50.966;11.038;2023-04-15T05:02:38;7.60;99.90
30381;DHT22;17169;50.966;11.038;2023-04-15T05:05:41;7.60;99.90
30381;DHT22;17169;50.966;11.038;2023-04-15T05:08:44;7.60;99.90
30381;DHT22;17169;50.966;11.038;2023-04-15T05:11:47;7.60;99.90
30381;DHT22;17169;50.966;11.038;2023-04-15T05:14:50;7.60;99.90
30381;DHT22;17169;50.966;11.038;2023-04-15T05:17:53;7.60;99.90
30381;DHT22;17169;50.966;11.038;2023-04-15T05:20:55;7.60;99.90
30381;DHT22;17169;50.966;11.038;2023-04-15T05:23:57;7.60;99.90
30381;DHT22;17169;50.966;11.038;2023-04-15T05:27:00;7.60;99.90
30381;DHT22;17169;50.966;11.038;2023-04-15T05:30:05;7.70;99.90
30381;DHT22;17169;50.966;11.038;2023-04-15T05:33:07;7.70;99.90
30381;DHT22;17169;50.966;11.038;2023-04-15T05:36:10;7.70;99.90
30381;DHT22;17169;50.966;11.038;2023-04-15T05:39:13;7.80;99.90
30381;DHT22;17169;50.966;11.038;2023-04-15T05:42:16;7.70;99.90
30381;DHT22;17169;50.966;11.038;2023-04-15T05:45:19;7.70;99.90
30381;DHT22;17169;50.966;11.038;2023-04-15T05:48:22;7.70;99.90
30381;DHT22;17169;50.966;11.038;2023-04-15T05:51:24;7.80;99.90
30381;DHT22;17169;50.966;11.038;2023-04-15T05:54:27;7.80;99.90
30381;DHT22;17169;50.966;11.038;2023-04-15T05:57:29;7.80;99.90
30381;DHT22;17169;50.966;11.038;2023-04-15T06:00:33;7.80;99.90
30381;DHT22;17169;50.966;11.038;2023-04-15T06:03:36;7.70;99.90
30381;DHT22;17169;50.966;11.038;2023-04-15T06:06:39;7.70;99.90
30381;DHT22;17169;50.966;11.038;2023-04-15T06:09:42;7.60;99.90
30381;DHT22;17169;50.966;11.038;2023-04-15T06:12:44;7.70;99.90
30381;DHT22;17169;50.966;11.038;2023-04-15T06:15:49;7.70;99.90
30381;DHT22;17169;50.966;11.038;2023-04-15T06:18:51;7.70;99.90
30381;DHT22;17169;50.966;11.038;2023-04-15T06:21:53;7.70;99.90
30381;DHT22;17169;50.966;11.038;2023-04-15T06:24:56;7.70;99.90
30381;DHT22;17169;50.966;11.038;2023-04-15T06:27:58;7.70;99.90
30381;DHT22;17169;50.966;11.038;2023-04-15T06:31:02;7.70;99.90
30381;DHT22;17169;50.966;11.038;2023-04-15T06:34:04;7.70;99.90
30381;DHT22;17169;50.966;11.038;2023-04-15T06:37:07;7.70;99.90
30381;DHT22;17169;50.966;11.038;2023-04-15T06:40:11;7.70;99.90
30381;DHT22;17169;50.966;11.038;2023-04-15T06:43:14;7.70;99.90
30381;DHT22;17169;50.966;11.038;2023-04-15T06:46:17;7.70;99.90
30381;DHT22;17169;50.966;11.038;2023-04-15T06:49:20;7.70;99.90
30381;DHT22;17169;50.966;11.038;2023-04-15T06:52:22;7.70;99.90
30381;DHT22;17169;50.966;11.038;2023-04-15T06:55:25;7.70;99.90
30381;DHT22;17169;50.966;11.038;2023-04-15T06:58:27;7.70;99.90
30381;DHT22;17169;50.966;11.038;2023-04-15T07:01:31;7.70;99.90
30381;DHT22;17169;50.966;11.038;2023-04-15T07:04:33;7.70;99.90
30381;DHT22;17169;50.966;11.038;2023-04-15T07:07:36;7.80;99.90
30381;DHT22;17169;50.966;11.038;2023-04-15T07:10:38;7.80;99.90
30381;DHT22;17169;50.966;11.038;2023-04-15T07:13:41;7.80;99.90
30381;DHT22;17169;50.966;11.038;2023-04-15T07:16:45;7.80;99.90
30381;DHT22;17169;50.966;11.038;2023-04-15T07:19:47;7.80;99.90
30381;DHT22;17169;50.966;11.038;2023-04-15T07:22:50;7.90;99.90
30381;DHT22;17169;50.966;11.038;2023-04-15T07:25:53;7.90;99.90
30381;DHT22;17169;50.966;11.038;2023-04-15T07:28:55;7.90;99.90
30381;DHT22;17169;50.966;11.038;2023-04-15T07:31:59;7.90;99.90
30381;DHT22;17169;50.966;11.038;2023-04-15T07:35:02;7.90;99.90
30381;DHT22;17169;50.966;11.038;2023-04-15T07:38:04;7.80;99.90
30381;DHT22;17169;50.966;11.038;2023-04-15T07:41:07;7.90;99.90
30381;DHT22;17169;50.966;11.038;2023-04-15T07:44:09;7.80;99.90
30381;DHT22;17169;50.966;11.038;2023-04-15T07:47:14;7.80;99.90
30381;DHT22;17169;50.966;11.038;2023-04-15T07:50:16;7.80;99.90
30381;DHT22;17169;50.966;11.038;2023-04-15T07:53:19;7.90;99.90
30381;DHT22;17169;50.966;11.038;2023-04-15T07:56:22;7.80;99.90
30381;DHT22;17169;50.966;11.038;2023-04-15T07:59:24;7.80;99.90
30381;DHT22;17169;50.966;11.038;2023-04-15T08:02:29;7.80;99.90
30381;DHT22;17169;50.966;11.038;2023-04-15T08:08:34;7.80;99.90
30381;DHT22;17169;50.966;11.038;2023-04-15T08:11:36;7.90;99.90
30381;DHT22;17169;50.966;11.038;2023-04-15T08:14:39;7.90;99.90
30381;DHT22;17169;50.966;11.038;2023-04-15T08:17:43;7.90;99.90
30381;DHT22;17169;50.966;11.038;2023-04-15T08:20:45;8.10;99.90
30381;DHT22;17169;50.966;11.038;2023-04-15T08:23:49;8.10;99.90
30381;DHT22;17169;50.966;11.038;2023-04-15T08:26:51;8.20;99.90
30381;DHT22;17169;50.966;11.038;2023-04-15T08:29:54;8.20;99.90
30381;DHT22;17169;50.966;11.038;2023-04-15T08:32:57;8.30;99.90
30381;DHT22;17169;50.966;11.038;2023-04-15T08:36:00;8.30;99.90
30381;DHT22;17169;50.966;11.038;2023-04-15T08:39:02;8.30;99.90
30381;DHT22;17169;50.966;11.038;2023-04-15T08:42:11;8.30;99.90
30381;DHT22;17169;50.966;11.038;2023-04-15T08:45:17;8.40;99.90
30381;DHT22;17169;50.966;11.038;2023-04-15T08:48:22;8.40;99.90
30381;DHT22;17169;50.966;11.038;2023-04-15T08:51:25;8.40;99.90
30381;DHT22;17169;50.966;11.038;2023-04-15T08:54:28;8.30;99.90
30381;DHT22;17169;50.966;11.038;2023-04-15T08:57:32;8.40;99.90
30381;DHT22;17169;50.966;11.038;2023-04-15T09:00:35;8.40;99.90
30381;DHT22;17169;50.966;11.038;2023-04-15T09:03:39;8.30;99.90
30381;DHT22;17169;50.966;11.038;2023-04-15T09:06:41;8.30;99.90
30381;DHT22;17169;50.966;11.038;2023-04-15T09:09:44;8.40;99.90
30381;DHT22;17169;50.966;11.038;2023-04-15T09:12:46;8.50;99.90
30381;DHT22;17169;50.966;11.038;2023-04-15T09:15:48;8.60;99.90
30381;DHT22;17169;50.966;11.038;2023-04-15T09:18:52;8.60;99.90
30381;DHT22;17169;50.966;11.038;2023-04-15T09:21:56;8.60;99.90
30381;DHT22;17169;50.966;11.038;2023-04-15T09:24:58;8.50;99.90
30381;DHT22;17169;50.966;11.038;2023-04-15T09:28:01;8.50;99.90
30381;DHT22;17169;50.966;11.038;2023-04-15T09:31:04;8.50;99.90
30381;DHT22;17169;50.966;11.038;2023-04-15T09:34:08;8.40;99.90
30381;DHT22;17169;50.966;11.038;2023-04-15T09:37:10;8.40;99.90
30381;DHT22;17169;50.966;11.038;2023-04-15T09:40:13;8.40;99.90
30381;DHT22;17169;50.966;11.038;2023-04-15T09:43:16;8.40;99.90
30381;DHT22;17169;50.966;11.038;2023-04-15T09:46:18;8.40;99.90
30381;DHT22;17169;50.966;11.038;2023-04-15T09:49:22;8.40;99.90
30381;DHT22;17169;50.966;11.038;2023-04-15T09:52:25;8.40;99.90
30381;DHT22;17169;50.966;11.038;2023-04-15T09:55:32;8.40;99.90
30381;DHT22;17169;50.966;11.038;2023-04-15T09:58:34;8.40;99.90
30381;DHT22;17169;50.966;11.038;2023-04-15T10:01:40;8.50;99.90
30381;DHT22;17169;50.966;11.038;2023-04-15T10:04:44;8.60;99.90
30381;DHT22;17169;50.966;11.038;2023-04-15T10:07:49;8.60;99.90
30381;DHT22;17169;50.966;11.038;2023-04-15T10:10:53;8.70;99.90
30381;DHT22;17169;50.966;11.038;2023-04-15T10:13:56;8.80;99.90
30381;DHT22;17169;50.966;11.038;2023-04-15T10:17:01;8.80;99.90
30381;DHT22;17169;50.966;11.038;2023-04-15T10:20:06;8.80;99.90
30381;DHT22;17169;50.966;11.038;2023-04-15T10:23:10;8.80;99.90
30381;DHT22;17169;50.966;11.038;2023-04-15T10:26:14;8.80;99.90
30381;DHT22;17169;50.966;11.038;2023-04-15T10:29:17;8.80;99.90
30381;DHT22;17169;50.966;11.038;2023-04-15T10:32:21;8.80;99.90
30381;DHT22;17169;50.966;11.038;2023-04-15T10:35:27;8.90;99.90
30381;DHT22;17169;50.966;11.038;2023-04-15T10:38:32;9.00;99.90
30381;DHT22;17169;50.966;11.038;2023-04-15T10:41:34;9.00;99.90
30381;DHT22;17169;50.966;11.038;2023-04-15T10:44:39;9.10;99.90
30381;DHT22;17169;50.966;11.038;2023-04-15T10:47:43;9.00;99.90
30381;DHT22;17169;50.966;11.038;2023-04-15T10:50:55;9.10;99.90
30381;DHT22;17169;50.966;11.038;2023-04-15T10:53:58;9.10;99.90
30381;DHT22;17169;50.966;11.038;2023-04-15T10:57:08;9.20;99.90
30381;DHT22;17169;50.966;11.038;2023-04-15T11:00:15;9.20;99.90
30381;DHT22;17169;50.966;11.038;2023-04-15T11:03:35;9.20;99.90
30381;DHT22;17169;50.966;11.038;2023-04-15T11:06:44;9.20;99.90
30381;DHT22;17169;50.966;11.038;2023-04-15T11:09:46;9.30;99.90
30381;DHT22;17169;50.966;11.038;2023-04-15T11:12:51;9.40;99.90
30381;DHT22;17169;50.966;11.038;2023-04-15T11:15:58;9.40;99.90
30381;DHT22;17169;50.966;11.038;2023-04-15T11:19:01;9.40;99.90
30381;DHT22;17169;50.966;11.038;2023-04-15T11:22:08;9.40;99.90
30381;DHT22;17169;50.966;11.038;2023-04-15T11:25:21;9.40;99.90
30381;DHT22;17169;50.966;11.038;2023-04-15T11:28:25;9.30;99.90
30381;DHT22;17169;50.966;11.038;2023-04-15T11:31:28;9.40;99.90
30381;DHT22;17169;50.966;11.038;2023-04-15T11:34:31;9.40;99.90
30381;DHT22;17169;50.966;11.038;2023-04-15T11:37:36;9.40;99.90
30381;DHT22;17169;50.966;11.038;2023-04-15T11:40:39;9.40;99.90
30381;DHT22;17169;50.966;11.038;2023-04-15T11:43:42;9.50;99.90
30381;DHT22;17169;50.966;11.038;2023-04-15T11:46:44;9.40;99.90
30381;DHT22;17169;50.966;11.038;2023-04-15T11:49:46;9.40;99.90
30381;DHT22;17169;50.966;11.038;2023-04-15T11:52:54;9.40;99.90
30381;DHT22;17169;50.966;11.038;2023-04-15T11:55:56;9.40;99.90
30381;DHT22;17169;50.966;11.038;2023-04-15T11:58:59;9.40;99.90
30381;DHT22;17169;50.966;11.038;2023-04-15T12:02:10;9.40;99.90
30381;DHT22;17169;50.966;11.038;2023-04-15T12:05:14;9.40;99.90
30381;DHT22;17169;50.966;11.038;2023-04-15T12:08:17;9.40;99.90
30381;DHT22;17169;50.966;11.038;2023-04-15T12:11:20;9.50;99.90
30381;DHT22;17169;50.966;11.038;2023-04-15T12:14:25;9.40;99.90
30381;DHT22;17169;50.966;11.038;2023-04-15T12:17:28;9.40;99.90
30381;DHT22;17169;50.966;11.038;2023-04-15T12:20:31;9.50;99.90
30381;DHT22;17169;50.966;11.038;2023-04-15T12:23:37;9.40;99.90
30381;DHT22;17169;50.966;11.038;2023-04-15T12:26:44;9.40;99.90
30381;DHT22;17169;50.966;11.038;2023-04-15T12:29:47;9.30;99.90
30381;DHT22;17169;50.966;11.038;2023-04-15T12:32:51;9.30;99.90
30381;DHT22;17169;50.966;11.038;2023-04-15T12:35:53;9.40;99.90
30381;DHT22;17169;50.966;11.038;2023-04-15T12:38:57;9.30;99.90
30381;DHT22;17169;50.966;11.038;2023-04-15T12:41:59;9.30;99.90
30381;DHT22;17169;50.966;11.038;2023-04-15T12:45:02;9.30;99.90
30381;DHT22;17169;50.966;11.038;2023-04-15T12:48:04;9.40;99.90
30381;DHT22;17169;50.966;11.038;2023-04-15T12:51:09;9.40;99.90
30381;DHT22;17169;50.966;11.038;2023-04-15T12:54:12;9.40;99.90
30381;DHT22;17169;50.966;11.038;2023-04-15T12:57:15;9.40;99.90
30381;DHT22;17169;50.966;11.038;2023-04-15T13:00:17;9.40;99.90
30381;DHT22;17169;50.966;11.038;2023-04-15T13:03:20;9.30;99.90
30381;DHT22;17169;50.966;11.038;2023-04-15T13:06:22;9.40;99.90
30381;DHT22;17169;50.966;11.038;2023-04-15T13:09:26;9.40;99.90
30381;DHT22;17169;50.966;11.038;2023-04-15T13:12:28;9.40;99.90
30381;DHT22;17169;50.966;11.038;2023-04-15T13:15:31;9.50;99.90
30381;DHT22;17169;50.966;11.038;2023-04-15T13:18:33;9.50;99.90
30381;DHT22;17169;50.966;11.038;2023-04-15T13:21:36;9.60;99.90
30381;DHT22;17169;50.966;11.038;2023-04-15T13:24:39;9.60;99.90
30381;DHT22;17169;50.966;11.038;2023-04-15T13:27:42;9.60;99.90
30381;DHT22;17169;50.966;11.038;2023-04-15T13:30:44;9.60;99.90
30381;DHT22;17169;50.966;11.038;2023-04-15T13:33:48;9.70;99.90
30381;DHT22;17169;50.966;11.038;2023-04-15T13:36:51;9.70;99.90
30381;DHT22;17169;50.966;11.038;2023-04-15T13:39:55;9.80;99.90
30381;DHT22;17169;50.966;11.038;2023-04-15T13:42:58;9.80;99.90
30381;DHT22;17169;50.966;11.038;2023-04-15T13:46:00;9.80;99.90
30381;DHT22;17169;50.966;11.038;2023-04-15T13:49:02;9.80;99.90
30381;DHT22;17169;50.966;11.038;2023-04-15T13:52:05;9.80;99.90
30381;DHT22;17169;50.966;11.038;2023-04-15T13:55:09;9.70;99.90
30381;DHT22;17169;50.966;11.038;2023-04-15T13:58:11;9.80;99.90
30381;DHT22;17169;50.966;11.038;2023-04-15T14:01:14;9.70;99.90
30381;DHT22;17169;50.966;11.038;2023-04-15T14:04:16;9.70;99.90
30381;DHT22;17169;50.966;11.038;2023-04-15T14:07:19;9.70;99.90
30381;DHT22;17169;50.966;11.038;2023-04-15T14:10:22;9.70;99.90
30381;DHT22;17169;50.966;11.038;2023-04-15T14:13:25;9.70;99.90
30381;DHT22;17169;50.966;11.038;2023-04-15T14:16:27;9.70;99.90
30381;DHT22;17169;50.966;11.038;2023-04-15T14:19:29;9.60;99.90
30381;DHT22;17169;50.966;11.038;2023-04-15T14:22:32;9.60;99.90
30381;DHT22;17169;50.966;11.038;2023-04-15T14:25:36;9.60;99.90
30381;DHT22;17169;50.966;11.038;2023-04-15T14:28:40;9.60;99.90
30381;DHT22;17169;50.966;11.038;2023-04-15T14:31:44;9.70;99.90
30381;DHT22;17169;50.966;11.038;2023-04-15T14:34:48;9.70;99.90
30381;DHT22;17169;50.966;11.038;2023-04-15T14:37:51;9.70;99.90
30381;DHT22;17169;50.966;11.038;2023-04-15T14:40:55;9.70;99.90
30381;DHT22;17169;50.966;11.038;2023-04-15T14:43:57;9.70;99.90
30381;DHT22;17169;50.966;11.038;2023-04-15T14:47:00;9.70;99.90
30381;DHT22;17169;50.966;11.038;2023-04-15T14:50:03;9.60;99.90
30381;DHT22;17169;50.966;11.038;2023-04-15T14:53:05;9.60;99.90
30381;DHT22;17169;50.966;11.038;2023-04-15T14:56:09;9.60;99.90
30381;DHT22;17169;50.966;11.038;2023-04-15T14:59:11;9.60;99.90
30381;DHT22;17169;50.966;11.038;2023-04-15T15:02:14;9.60;99.90
30381;DHT22;17169;50.966;11.038;2023-04-15T15:05:17;9.70;99.90
30381;DHT22;17169;50.966;11.038;2023-04-15T15:08:19;9.70;99.90
30381;DHT22;17169;50.966;11.038;2023-04-15T15:11:23;9.70;99.90
30381;DHT22;17169;50.966;11.038;2023-04-15T15:14:25;9.70;99.90
30381;DHT22;17169;50.966;11.038;2023-04-15T15:17:28;9.70;99.90
30381;DHT22;17169;50.966;11.038;2023-04-15T15:20:31;9.60;99.90
30381;DHT22;17169;50.966;11.038;2023-04-15T15:23:34;9.60;99.90
30381;DHT22;17169;50.966;11.038;2023-04-15T15:26:38;9.70;99.90
30381;DHT22;17169;50.966;11.038;2023-04-15T15:29:41;9.70;99.90
30381;DHT22;17169;50.966;11.038;2023-04-15T15:32:43;9.70;99.90
30381;DHT22;17169;50.966;11.038;2023-04-15T15:35:46;9.70;99.90
30381;DHT22;17169;50.966;11.038;2023-04-15T15:38:48;9.70;99.90
30381;DHT22;17169;50.966;11.038;2023-04-15T15:41:52;9.70;99.90
30381;DHT22;17169;50.966;11.038;2023-04-15T15:44:54;9.70;99.90
30381;DHT22;17169;50.966;11.038;2023-04-15T15:47:57;9.70;99.90
30381;DHT22;17169;50.966;11.038;2023-04-15T15:51:00;9.60;99.90
30381;DHT22;17169;50.966;11.038;2023-04-15T15:54:04;9.70;99.90
30381;DHT22;17169;50.966;11.038;2023-04-15T15:57:07;9.60;99.90
30381;DHT22;17169;50.966;11.038;2023-04-15T16:00:11;9.60;99.90
30381;DHT22;17169;50.966;11.038;2023-04-15T16:03:14;9.60;99.90
30381;DHT22;17169;50.966;11.038;2023-04-15T16:06:16;9.60;99.90
30381;DHT22;17169;50.966;11.038;2023-04-15T16:09:19;9.60;99.90
30381;DHT22;17169;50.966;11.038;2023-04-15T16:12:22;9.60;99.90
30381;DHT22;17169;50.966;11.038;2023-04-15T16:15:25;9.70;99.90
30381;DHT22;17169;50.966;11.038;2023-04-15T16:18:27;9.70;99.90
30381;DHT22;17169;50.966;11.038;2023-04-15T16:21:30;9.70;99.90
30381;DHT22;17169;50.966;11.038;2023-04-15T16:24:32;9.70;99.90
30381;DHT22;17169;50.966;11.038;2023-04-15T16:27:37;9.70;99.90
30381;DHT22;17169;50.966;11.038;2023-04-15T16:30:40;9.70;99.90
30381;DHT22;17169;50.966;11.038;2023-04-15T16:33:42;9.70;99.90
30381;DHT22;17169;50.966;11.038;2023-04-15T16:36:44;9.70;99.90
30381;DHT22;17169;50.966;11.038;2023-04-15T16:39:47;9.70;99.90
30381;DHT22;17169;50.966;11.038;2023-04-15T16:42:51;9.70;99.90
30381;DHT22;17169;50.966;11.038;2023-04-15T16:45:53;9.80;99.90
30381;DHT22;17169;50.966;11.038;2023-04-15T16:48:56;9.80;99.90
30381;DHT22;17169;50.966;11.038;2023-04-15T16:51:58;9.80;99.90
30381;DHT22;17169;50.966;11.038;2023-04-15T16:55:01;9.70;99.90
30381;DHT22;17169;50.966;11.038;2023-04-15T16:58:04;9.70;99.90
30381;DHT22;17169;50.966;11.038;2023-04-15T17:01:07;9.70;99.90
30381;DHT22;17169;50.966;11.038;2023-04-15T17:04:09;9.70;99.90
30381;DHT22;17169;50.966;11.038;2023-04-15T17:07:12;9.70;99.90
30381;DHT22;17169;50.966;11.038;2023-04-15T17:10:15;9.70;99.90
30381;DHT22;17169;50.966;11.038;2023-04-15T17:13:18;9.70;99.90
30381;DHT22;17169;50.966;11.038;2023-04-15T17:16:21;9.70;99.90
30381;DHT22;17169;50.966;11.038;2023-04-15T17:19:23;9.70;99.90
30381;DHT22;17169;50.966;11.038;2023-04-15T17:22:26;9.70;99.90
30381;DHT22;17169;50.966;11.038;2023-04-15T17:25:29;9.70;99.90
30381;DHT22;17169;50.966;11.038;2023-04-15T17:28:33;9.70;99.90
30381;DHT22;17169;50.966;11.038;2023-04-15T17:31:35;9.70;99.90
30381;DHT22;17169;50.966;11.038;2023-04-15T17:34:37;9.70;99.90
30381;DHT22;17169;50.966;11.038;2023-04-15T17:37:40;9.70;99.90
30381;DHT22;17169;50.966;11.038;2023-04-15T17:40:42;9.60;99.90
30381;DHT22;17169;50.966;11.038;2023-04-15T17:43:46;9.70;99.90
30381;DHT22;17169;50.966;11.038;2023-04-15T17:46:48;9.70;99.90
30381;DHT22;17169;50.966;11.038;2023-04-15T17:49:50;9.70;99.90
30381;DHT22;17169;50.966;11.038;2023-04-15T17:52:53;9.70;99.90
30381;DHT22;17169;50.966;11.038;2023-04-15T17:55:56;9.70;99.90
30381;DHT22;17169;50.966;11.038;2023-04-15T17:59:00;9.70;99.90
30381;DHT22;17169;50.966;11.038;2023-04-15T18:02:03;9.70;99.90
30381;DHT22;17169;50.966;11.038;2023-04-15T18:05:06;9.80;99.90
30381;DHT22;17169;50.966;11.038;2023-04-15T18:08:08;9.80;99.90
30381;DHT22;17169;50.966;11.038;2023-04-15T18:11:11;9.80;99.90
30381;DHT22;17169;50.966;11.038;2023-04-15T18:14:14;9.80;99.90
30381;DHT22;17169;50.966;11.038;2023-04-15T18:17:17;9.80;99.90
30381;DHT22;17169;50.966;11.038;2023-04-15T18:20:20;9.80;99.90
30381;DHT22;17169;50.966;11.038;2023-04-15T18:23:22;9.80;99.90
30381;DHT22;17169;50.966;11.038;2023-04-15T18:26:26;9.80;99.90
30381;DHT22;17169;50.966;11.038;2023-04-15T18:29:30;9.70;99.90
30381;DHT22;17169;50.966;11.038;2023-04-15T18:32:33;9.70;99.90
30381;DHT22;17169;50.966;11.038;2023-04-15T18:35:35;9.70;99.90
30381;DHT22;17169;50.966;11.038;2023-04-15T18:38:37;9.70;99.90
30381;DHT22;17169;50.966;11.038;2023-04-15T18:41:40;9.60;99.90
30381;DHT22;17169;50.966;11.038;2023-04-15T18:44:44;9.70;99.90
30381;DHT22;17169;50.966;11.038;2023-04-15T18:47:46;9.60;99.90
30381;DHT22;17169;50.966;11.038;2023-04-15T18:50:50;9.70;99.90
30381;DHT22;17169;50.966;11.038;2023-04-15T18:53:54;9.70;99.90
30381;DHT22;17169;50.966;11.038;2023-04-15T18:56:56;9.70;99.90
30381;DHT22;17169;50.966;11.038;2023-04-15T19:00:00;9.70;99.90
30381;DHT22;17169;50.966;11.038;2023-04-15T19:03:03;9.70;99.90
30381;DHT22;17169;50.966;11.038;2023-04-15T19:06:05;9.80;99.90
30381;DHT22;17169;50.966;11.038;2023-04-15T19:09:08;9.80;99.90
30381;DHT22;17169;50.966;11.038;2023-04-15T19:12:10;9.80;99.90
30381;DHT22;17169;50.966;11.038;2023-04-15T19:15:14;9.90;99.90
30381;DHT22;17169;50.966;11.038;2023-04-15T19:18:16;9.80;99.90